createdAt,value
2018-05-25T00:00:40.725Z,97251.05
2018-05-25T00:03:08.185Z,97252.33
2018-05-25T00:05:35.657Z,97252.93
2018-05-25T00:08:03.883Z,97251.45
2018-05-25T00:10:31.355Z,97252.55
2018-05-25T00:12:58.819Z,97257.51
2018-05-25T00:15:26.225Z,97255.98
2018-05-25T00:17:53.687Z,97257.41
2018-05-25T00:20:21.103Z,97249.73
2018-05-25T00:22:48.503Z,97245.29
2018-05-25T00:25:15.943Z,97239.33
2018-05-25T00:27:43.416Z,97247.50
2018-05-25T00:30:10.890Z,97239.54
2018-05-25T00:32:38.291Z,97242.42
2018-05-25T00:35:05.748Z,97239.75
2018-05-25T00:37:33.176Z,97235.31
2018-05-25T00:40:00.617Z,97234.03
2018-05-25T00:42:28.110Z,97233.62
2018-05-25T00:44:55.559Z,97228.68
2018-05-25T00:47:22.997Z,97234.09
2018-05-25T00:49:50.439Z,97230.94
2018-05-25T00:52:17.944Z,97238.48
2018-05-25T00:57:45.393Z,97231.73
2018-05-25T01:00:12.836Z,97232.20
2018-05-25T01:02:40.301Z,97230.35
2018-05-25T01:05:07.712Z,97230.47
2018-05-25T01:07:35.132Z,97230.84
2018-05-25T01:10:02.574Z,97230.16
2018-05-25T01:12:29.981Z,97222.38
2018-05-25T01:14:57.916Z,97216.14
2018-05-25T01:17:25.337Z,97222.70
2018-05-25T01:19:52.777Z,97220.45
2018-05-25T01:22:20.229Z,97216.33
2018-05-25T01:24:47.615Z,97212.29
2018-05-25T01:27:16.089Z,97218.47
2018-05-25T01:29:44.447Z,97222.59
2018-05-25T01:32:12.768Z,97213.58
2018-05-25T01:34:40.355Z,97218.22
2018-05-25T01:37:07.826Z,97223.95
2018-05-25T01:39:35.291Z,97222.78
2018-05-25T01:42:02.975Z,97226.30
2018-05-25T01:44:30.376Z,97224.67
2018-05-25T01:46:58.991Z,97223.50
2018-05-25T01:49:26.483Z,97223.80
2018-05-25T01:51:53.936Z,97227.17
2018-05-25T01:54:21.472Z,97228.45
2018-05-25T01:56:48.936Z,97229.05
2018-05-25T01:59:16.404Z,97234.73
2018-05-25T02:01:44.808Z,97232.59
2018-05-25T02:04:12.252Z,97232.16
2018-05-25T02:06:39.708Z,97234.75
2018-05-25T02:09:07.147Z,97228.82
2018-05-25T02:11:34.590Z,97234.55
2018-05-25T02:14:03.098Z,97229.23
2018-05-25T02:16:30.518Z,97234.70
2018-05-25T02:18:57.931Z,97230.22
2018-05-25T02:21:25.335Z,97235.52
2018-05-25T02:23:52.827Z,97242.66
2018-05-25T02:26:20.262Z,97238.19
2018-05-25T02:28:47.647Z,97237.47
2018-05-25T02:31:16.028Z,97235.44
2018-05-25T02:33:43.503Z,97231.59
2018-05-25T02:36:11.515Z,97226.78
2018-05-25T02:38:38.982Z,97231.97
2018-05-25T02:41:06.368Z,97229.16
2018-05-25T02:43:34.812Z,97229.36
2018-05-25T02:46:02.239Z,97226.70
2018-05-25T02:48:30.855Z,97231.33
2018-05-25T02:50:58.308Z,97232.23
2018-05-25T02:53:25.731Z,97232.77
2018-05-25T02:55:53.168Z,97228.53
2018-05-25T02:58:24.157Z,97226.07
2018-05-25T03:00:51.628Z,97228.41
2018-05-25T03:03:19.888Z,97226.52
2018-05-25T03:05:47.363Z,97221.83
2018-05-25T03:08:14.850Z,97223.08
2018-05-25T03:10:42.336Z,97219.18
2018-05-25T03:13:09.813Z,97221.70
2018-05-25T03:15:37.239Z,97217.31
2018-05-25T03:18:04.696Z,97220.92
2018-05-25T03:20:32.164Z,97220.64
2018-05-25T03:22:59.872Z,97217.94
2018-05-25T03:25:27.469Z,97223.37
2018-05-25T03:27:54.874Z,97222.53
2018-05-25T03:30:22.308Z,97217.77
2018-05-25T03:32:49.751Z,97216.03
2018-05-25T03:35:19.927Z,97216.57
2018-05-25T03:37:47.404Z,97215.03
2018-05-25T03:40:14.842Z,97217.06
2018-05-25T03:42:42.300Z,97220.83
2018-05-25T03:45:09.761Z,97210.02
2018-05-25T03:47:37.462Z,97216.65
2018-05-25T03:50:05.587Z,97223.06
2018-05-25T03:52:32.991Z,97226.97
2018-05-25T03:55:00.418Z,97231.52
2018-05-25T03:57:27.825Z,97236.50
2018-05-25T04:00:06.998Z,97235.17
2018-05-25T04:02:34.389Z,97241.48
2018-05-25T04:05:02.917Z,97244.80
2018-05-25T04:07:30.326Z,97247.08
2018-05-25T04:09:57.751Z,97249.27
2018-05-25T04:12:25.167Z,97250.65
2018-05-25T04:14:52.616Z,97249.53
2018-05-25T04:17:20.497Z,97254.06
2018-05-25T04:19:48.014Z,97256.46
2018-05-25T04:22:15.533Z,97260.57
2018-05-25T04:24:42.977Z,97256.52
2018-05-25T04:27:10.409Z,97256.61
2018-05-25T04:29:37.921Z,97260.46
2018-05-25T04:32:05.493Z,97255.45
2018-05-25T04:34:33.094Z,97256.60
2018-05-25T04:37:00.587Z,97259.94
2018-05-25T04:39:27.984Z,97261.91
2018-05-25T04:41:55.493Z,97259.89
2018-05-25T04:44:23.840Z,97259.98
2018-05-25T04:46:51.317Z,97256.80
2018-05-25T04:49:22.004Z,97259.16
2018-05-25T04:51:49.426Z,97259.97
2018-05-25T04:54:17.859Z,97268.97
2018-05-25T04:56:45.329Z,97270.80
2018-05-25T04:59:13.719Z,97271.38
2018-05-25T05:01:41.127Z,97267.41
2018-05-25T05:04:08.600Z,97272.20
2018-05-25T05:06:36.054Z,97271.08
2018-05-25T05:09:03.499Z,97273.66
2018-05-25T05:11:31.759Z,97279.55
2018-05-25T05:13:59.170Z,97278.35
2018-05-25T05:16:26.616Z,97279.55
2018-05-25T05:18:55.136Z,97275.23
2018-05-25T05:21:22.538Z,97277.39
2018-05-25T05:23:52.873Z,97275.34
2018-05-25T05:26:20.363Z,97281.33
2018-05-25T05:28:47.894Z,97283.73
2018-05-25T05:31:16.277Z,97286.98
2018-05-25T05:33:43.756Z,97287.45
2018-05-25T05:36:11.218Z,97280.23
2018-05-25T05:38:38.671Z,97275.63
2018-05-25T05:41:06.152Z,97273.48
2018-05-25T05:43:33.619Z,97272.58
2018-05-25T05:46:01.108Z,97277.63
2018-05-25T05:48:28.555Z,97276.91
2018-05-25T05:50:56.153Z,97279.37
2018-05-25T05:53:23.568Z,97273.02
2018-05-25T05:55:51.048Z,97274.90
2018-05-25T05:58:19.310Z,97272.73
2018-05-25T06:00:46.839Z,97277.80
2018-05-25T06:03:14.350Z,97282.42
2018-05-25T06:05:41.817Z,97279.77
2018-05-25T06:08:09.227Z,97272.81
2018-05-25T06:10:36.692Z,97271.07
2018-05-25T06:13:04.977Z,97272.37
2018-05-25T06:15:32.447Z,97278.06
2018-05-25T06:17:59.978Z,97279.77
2018-05-25T06:20:27.419Z,97280.56
2018-05-25T06:22:54.949Z,97274.50
2018-05-25T06:25:23.535Z,97271.70
2018-05-25T06:27:50.923Z,97269.30
2018-05-25T06:30:18.367Z,97271.69
2018-05-25T06:32:45.921Z,97278.14
2018-05-25T06:35:13.346Z,97281.80
2018-05-25T06:37:41.378Z,97282.72
2018-05-25T06:40:08.812Z,97281.73
2018-05-25T06:42:36.293Z,97275.42
2018-05-25T06:45:03.736Z,97273.67
2018-05-25T06:47:31.278Z,97279.09
2018-05-25T06:49:58.734Z,97284.41
2018-05-25T06:52:26.199Z,97282.05
2018-05-25T06:54:53.708Z,97280.73
2018-05-25T06:57:21.136Z,97274.57
2018-05-25T06:59:48.580Z,97280.20
2018-05-25T07:02:16.851Z,97275.13
2018-05-25T07:04:46.151Z,97278.84
2018-05-25T07:07:13.629Z,97275.31
2018-05-25T07:09:41.150Z,97267.78
2018-05-25T07:12:08.575Z,97267.38
2018-05-25T07:14:35.979Z,97273.72
2018-05-25T07:17:03.508Z,97272.89
2018-05-25T07:19:30.867Z,97275.50
2018-05-25T07:21:58.312Z,97273.55
2018-05-25T07:24:26.518Z,97268.44
2018-05-25T07:26:54.021Z,97266.36
2018-05-25T07:29:21.525Z,97267.00
2018-05-25T07:31:48.936Z,97266.80
2018-05-25T07:34:16.408Z,97266.09
2018-05-25T07:36:43.892Z,97267.16
2018-05-25T07:39:11.445Z,97262.63
2018-05-25T07:41:38.983Z,97263.94
2018-05-25T07:44:06.538Z,97269.62
2018-05-25T07:46:36.162Z,97269.58
2018-05-25T07:49:03.601Z,97273.80
2018-05-25T07:51:31.106Z,97267.44
2018-05-25T07:53:58.596Z,97266.13
2018-05-25T07:56:26.216Z,97268.30
2018-05-25T07:58:53.602Z,97261.47
2018-05-25T08:01:21.044Z,97271.45
2018-05-25T08:03:48.496Z,97264.89
2018-05-25T08:06:15.925Z,97263.25
2018-05-25T08:08:47.804Z,97259.86
2018-05-25T08:11:16.169Z,97255.73
2018-05-25T08:13:43.616Z,97258.31
2018-05-25T08:16:11.250Z,97260.18
2018-05-25T08:18:38.691Z,97263.53
2018-05-25T08:21:06.160Z,97255.47
2018-05-25T08:23:34.192Z,97255.88
2018-05-25T08:26:02.359Z,97257.38
2018-05-25T08:28:29.844Z,97263.68
2018-05-25T08:30:58.102Z,97260.94
2018-05-25T08:33:25.595Z,97254.05
2018-05-25T08:35:53.089Z,97258.27
2018-05-25T08:38:20.566Z,97258.16
2018-05-25T08:40:47.962Z,97255.00
2018-05-25T08:43:15.428Z,97253.91
2018-05-25T08:45:43.002Z,97248.61
2018-05-25T08:48:10.441Z,97252.17
2018-05-25T08:50:37.900Z,97248.23
2018-05-25T08:53:05.480Z,97248.45
2018-05-25T08:55:33.020Z,97246.55
2018-05-25T08:58:00.457Z,97243.70
2018-05-25T09:00:27.885Z,97242.70
2018-05-25T09:02:55.306Z,97237.86
2018-05-25T09:05:22.788Z,97234.37
2018-05-25T09:07:50.228Z,97240.08
2018-05-25T09:10:17.699Z,97241.42
2018-05-25T09:12:45.166Z,97229.36
2018-05-25T09:15:12.633Z,97228.86
2018-05-25T09:17:41.009Z,97235.80
2018-05-25T09:20:08.431Z,97229.32
2018-05-25T09:22:35.830Z,97227.39
2018-05-25T09:25:03.283Z,97217.65
2018-05-25T09:27:30.759Z,97228.01
2018-05-25T09:29:58.187Z,97225.94
2018-05-25T09:32:25.644Z,97226.05
2018-05-25T09:34:53.097Z,97223.41
2018-05-25T09:37:20.034Z,97225.73
2018-05-25T09:39:48.329Z,97221.69
2018-05-25T09:42:15.768Z,97224.61
2018-05-25T09:44:43.168Z,97220.80
2018-05-25T09:47:10.194Z,97220.36
2018-05-25T09:49:37.169Z,97215.01
2018-05-25T09:52:04.189Z,97217.19
2018-05-25T09:54:31.210Z,97220.17
2018-05-25T09:57:00.578Z,97215.98
2018-05-25T09:59:28.107Z,97212.48
2018-05-25T10:01:55.577Z,97217.20
2018-05-25T10:04:22.989Z,97215.39
2018-05-25T10:06:50.452Z,97213.41
2018-05-25T10:09:17.910Z,97218.83
2018-05-25T10:11:46.287Z,97214.67
2018-05-25T10:14:13.958Z,97219.52
2018-05-25T10:16:41.431Z,97215.56
2018-05-25T10:19:09.760Z,97211.18
2018-05-25T10:21:40.007Z,97220.33
2018-05-25T10:24:07.414Z,97206.23
2018-05-25T10:26:34.827Z,97214.23
2018-05-25T10:29:02.264Z,97211.20
2018-05-25T10:31:29.723Z,97202.45
2018-05-25T10:33:57.169Z,97200.90
2018-05-25T10:36:24.264Z,97199.98
2018-05-25T10:38:51.840Z,97195.48
2018-05-25T10:41:19.468Z,97194.25
2018-05-25T10:43:47.040Z,97189.95
2018-05-25T10:46:15.317Z,97199.11
2018-05-25T10:48:42.835Z,97196.66
2018-05-25T10:51:10.310Z,97204.11
2018-05-25T10:53:37.340Z,97203.89
2018-05-25T10:56:04.896Z,97198.95
2018-05-25T10:58:33.086Z,97198.84
2018-05-25T11:01:00.570Z,97193.16
2018-05-25T11:03:28.053Z,97198.83
2018-05-25T11:05:55.746Z,97195.42
2018-05-25T11:08:22.694Z,97197.27
2018-05-25T11:10:49.673Z,97202.80
2018-05-25T11:13:16.627Z,97199.31
2018-05-25T11:15:43.784Z,97195.80
2018-05-25T11:18:10.781Z,97196.50
2018-05-25T11:20:38.292Z,97197.92
2018-05-25T11:23:05.745Z,97196.56
2018-05-25T11:25:33.171Z,97200.11
2018-05-25T11:28:00.572Z,97202.84
2018-05-25T11:30:27.978Z,97199.05
2018-05-25T11:32:55.552Z,97192.25
2018-05-25T11:35:23.954Z,97183.19
2018-05-25T11:37:51.583Z,97189.81
2018-05-25T11:40:19.060Z,97186.42
2018-05-25T11:42:46.543Z,97193.12
2018-05-25T11:45:14.164Z,97198.33
2018-05-25T11:47:41.341Z,97192.61
2018-05-25T11:50:08.290Z,97183.53
2018-05-25T11:52:36.451Z,97185.98
2018-05-25T11:55:04.888Z,97184.77
2018-05-25T11:57:32.769Z,97181.52
2018-05-25T11:59:59.790Z,97173.61
2018-05-25T12:02:30.281Z,97170.72
2018-05-25T12:05:00.620Z,97165.34
2018-05-25T12:07:27.674Z,97168.28
2018-05-25T12:09:55.255Z,97156.09
2018-05-25T12:12:22.291Z,97158.59
2018-05-25T12:14:49.298Z,97161.94
2018-05-25T12:17:16.983Z,97160.27
2018-05-25T12:19:43.930Z,97157.87
2018-05-25T12:22:10.918Z,97153.00
2018-05-25T12:24:37.927Z,97151.34
2018-05-25T12:27:04.917Z,97160.05
2018-05-25T12:29:32.001Z,97162.23
2018-05-25T12:31:58.962Z,97151.34
2018-05-25T12:34:25.966Z,97148.74
2018-05-25T12:36:52.937Z,97151.63
2018-05-25T12:39:20.409Z,97136.14
2018-05-25T12:41:47.873Z,97137.63
2018-05-25T12:44:15.322Z,97136.66
2018-05-25T12:46:42.807Z,97139.23
2018-05-25T12:49:10.228Z,97141.00
2018-05-25T12:51:37.624Z,97134.05
2018-05-25T12:54:05.091Z,97139.17
2018-05-25T12:56:32.552Z,97135.66
2018-05-25T12:59:00.985Z,97137.81
2018-05-25T13:01:29.110Z,97135.10
2018-05-25T13:03:56.510Z,97134.46
2018-05-25T13:06:24.164Z,97133.84
2018-05-25T13:08:51.643Z,97133.09
2018-05-25T13:11:19.096Z,97128.66
2018-05-25T13:13:46.575Z,97132.77
2018-05-25T13:16:14.005Z,97128.91
2018-05-25T13:18:41.414Z,97128.53
2018-05-25T13:21:09.192Z,97127.64
2018-05-25T13:23:38.059Z,97126.83
2018-05-25T13:26:05.480Z,97124.12
2018-05-25T13:28:33.613Z,97127.40
2018-05-25T13:31:01.011Z,97124.63
2018-05-25T13:33:28.465Z,97115.83
2018-05-25T13:35:56.023Z,97114.08
2018-05-25T13:38:23.476Z,97113.95
2018-05-25T13:40:50.952Z,97110.38
2018-05-25T13:43:18.493Z,97110.92
2018-05-25T13:45:45.943Z,97115.00
2018-05-25T13:48:13.535Z,97109.66
2018-05-25T13:50:41.018Z,97108.42
2018-05-25T13:53:08.542Z,97113.42
2018-05-25T13:55:36.082Z,97106.38
2018-05-25T13:58:04.517Z,97101.88
2018-05-25T14:00:31.908Z,97100.52
2018-05-25T14:02:59.353Z,97099.20
2018-05-25T14:05:29.765Z,97096.99
2018-05-25T14:07:57.248Z,97090.25
2018-05-25T14:10:24.679Z,97081.75
2018-05-25T14:12:52.177Z,97084.03
2018-05-25T14:15:19.620Z,97087.83
2018-05-25T14:17:47.159Z,97094.25
2018-05-25T14:20:15.280Z,97087.23
2018-05-25T14:22:42.732Z,97093.91
2018-05-25T14:25:10.181Z,97094.20
2018-05-25T14:27:37.668Z,97101.38
2018-05-25T14:30:05.131Z,97095.97
2018-05-25T14:32:32.600Z,97093.23
2018-05-25T14:35:00.270Z,97098.84
2018-05-25T14:37:27.799Z,97092.13
2018-05-25T14:39:55.267Z,97099.57
2018-05-25T14:42:22.741Z,97100.27
2018-05-25T14:44:50.356Z,97091.53
2018-05-25T14:47:17.755Z,97087.49
2018-05-25T14:49:45.222Z,97088.05
2018-05-25T14:52:12.621Z,97085.56
2018-05-25T14:54:41.000Z,97082.09
2018-05-25T14:57:08.417Z,97076.08
2018-05-25T14:59:35.859Z,97075.05
2018-05-25T15:02:03.330Z,97085.70
2018-05-25T15:04:30.826Z,97078.22
2018-05-25T15:06:58.329Z,97079.98
2018-05-25T15:09:26.402Z,97082.53
2018-05-25T15:11:57.566Z,97090.25
2018-05-25T15:14:25.079Z,97099.64
2018-05-25T15:16:52.501Z,97096.58
2018-05-25T15:19:19.936Z,97098.95
2018-05-25T15:21:47.373Z,97106.61
2018-05-25T15:24:14.890Z,97096.41
2018-05-25T15:26:42.450Z,97090.88
2018-05-25T15:29:09.882Z,97085.67
2018-05-25T15:31:37.346Z,97080.88
2018-05-25T15:34:04.861Z,97076.28
2018-05-25T15:36:32.288Z,97072.38
2018-05-25T15:38:59.753Z,97074.97
2018-05-25T15:41:27.141Z,97072.93
2018-05-25T15:43:54.588Z,97077.19
2018-05-25T15:46:22.085Z,97075.33
2018-05-25T15:48:49.526Z,97067.62
2018-05-25T15:51:17.473Z,97060.61
2018-05-25T15:53:44.908Z,97060.02
2018-05-25T15:56:12.326Z,97057.10
2018-05-25T15:58:40.536Z,97054.09
2018-05-25T16:01:07.954Z,97056.28
2018-05-25T16:03:35.434Z,97060.30
2018-05-25T16:06:03.657Z,97058.14
2018-05-25T16:08:31.096Z,97058.23
2018-05-25T16:10:58.594Z,97055.75
2018-05-25T16:13:26.048Z,97054.48
2018-05-25T16:15:53.506Z,97057.09
2018-05-25T16:18:20.925Z,97054.53
2018-05-25T16:20:48.385Z,97051.43
2018-05-25T16:23:15.891Z,97044.16
2018-05-25T16:25:43.453Z,97048.81
2018-05-25T16:28:11.434Z,97045.31
2018-05-25T16:30:38.895Z,97051.33
2018-05-25T16:33:06.305Z,97044.36
2018-05-25T16:35:33.731Z,97046.82
2018-05-25T16:38:01.205Z,97045.80
2018-05-25T16:40:28.656Z,97049.94
2018-05-25T16:42:56.115Z,97053.03
2018-05-25T16:45:23.574Z,97054.16
2018-05-25T16:47:51.044Z,97061.83
2018-05-25T16:50:18.581Z,97053.17
2018-05-25T16:52:46.039Z,97053.98
2018-05-25T16:55:13.490Z,97056.99
2018-05-25T16:57:40.973Z,97061.61
2018-05-25T17:00:08.418Z,97055.16
2018-05-25T17:02:35.848Z,97056.12
2018-05-25T17:05:03.342Z,97053.59
2018-05-25T17:07:30.827Z,97054.17
2018-05-25T17:09:58.272Z,97054.65
2018-05-25T17:12:26.600Z,97047.70
2018-05-25T17:14:54.045Z,97052.72
2018-05-25T17:17:21.441Z,97064.06
2018-05-25T17:19:50.008Z,97057.19
2018-05-25T17:22:17.493Z,97058.19
2018-05-25T17:24:44.981Z,97062.75
2018-05-25T17:27:14.535Z,97066.73
2018-05-25T17:29:42.019Z,97058.14
2018-05-25T17:32:10.038Z,97062.61
2018-05-25T17:34:38.331Z,97058.86
2018-05-25T17:37:05.771Z,97066.34
2018-05-25T17:39:33.341Z,97068.27
2018-05-25T17:42:02.771Z,97068.53
2018-05-25T17:44:31.760Z,97058.47
2018-05-25T17:47:00.141Z,97074.20
2018-05-25T17:49:29.079Z,97068.81
2018-05-25T17:51:57.564Z,97078.22
2018-05-25T17:54:26.054Z,97072.31
2018-05-25T17:56:53.665Z,97069.84
2018-05-25T17:59:21.139Z,97075.95
2018-05-25T18:01:48.582Z,97076.64
2018-05-25T18:04:16.584Z,97079.05
2018-05-25T18:06:44.019Z,97081.23
2018-05-25T18:09:13.180Z,97081.23
2018-05-25T18:11:40.688Z,97070.50
2018-05-25T18:14:08.149Z,97062.61
2018-05-25T18:16:35.567Z,97063.70
2018-05-25T18:19:03.080Z,97062.92
2018-05-25T18:21:30.508Z,97062.16
2018-05-25T18:23:58.063Z,97064.80
2018-05-25T18:26:25.621Z,97067.48
2018-05-25T18:28:53.034Z,97065.31
2018-05-25T18:31:20.531Z,97067.59
2018-05-25T18:33:48.012Z,97071.59
2018-05-25T18:36:15.461Z,97069.19
2018-05-25T18:38:42.935Z,97071.81
2018-05-25T18:41:10.389Z,97076.82
2018-05-25T18:43:37.945Z,97071.50
2018-05-25T18:46:05.486Z,97074.60
2018-05-25T18:48:33.548Z,97078.60
2018-05-25T18:51:01.495Z,97079.29
2018-05-25T18:53:32.520Z,97081.19
2018-05-25T18:55:59.955Z,97077.03
2018-05-25T18:58:27.421Z,97078.52
2018-05-25T19:00:54.834Z,97078.17
2018-05-25T19:03:22.361Z,97078.65
2018-05-25T19:05:49.818Z,97071.51
2018-05-25T19:08:17.338Z,97069.24
2018-05-25T19:10:44.760Z,97067.70
2018-05-25T19:13:12.282Z,97063.64
2018-05-25T19:15:39.801Z,97065.97
2018-05-25T19:18:07.333Z,97072.59
2018-05-25T19:20:34.769Z,97073.11
2018-05-25T19:23:02.211Z,97078.47
2018-05-25T19:25:29.614Z,97077.58
2018-05-25T19:27:57.127Z,97083.13
2018-05-25T19:30:24.587Z,97075.20
2018-05-25T19:32:51.993Z,97085.30
2018-05-25T19:35:19.574Z,97094.42
2018-05-25T19:37:47.054Z,97094.94
2018-05-25T19:40:15.602Z,97096.09
2018-05-25T19:42:43.042Z,97104.11
2018-05-25T19:45:10.466Z,97107.80
2018-05-25T19:47:37.892Z,97111.80
2018-05-25T19:50:05.477Z,97117.61
2018-05-25T19:52:32.954Z,97117.22
2018-05-25T19:55:00.402Z,97120.23
2018-05-25T19:57:27.966Z,97116.34
2018-05-25T19:59:56.144Z,97116.05
2018-05-25T20:02:23.577Z,97116.05
2018-05-25T20:04:52.129Z,97113.20
2018-05-25T20:07:19.596Z,97121.25
2018-05-25T20:09:48.857Z,97126.40
2018-05-25T20:12:16.320Z,97128.06
2018-05-25T20:14:43.773Z,97129.67
2018-05-25T20:17:11.247Z,97135.37
2018-05-25T20:19:38.779Z,97131.48
2018-05-25T20:22:06.226Z,97125.09
2018-05-25T20:24:34.665Z,97126.91
2018-05-25T20:27:02.141Z,97128.86
2018-05-25T20:29:29.547Z,97132.76
2018-05-25T20:31:57.499Z,97133.73
2018-05-25T20:34:25.947Z,97132.52
2018-05-25T20:36:53.428Z,97135.91
2018-05-25T20:39:20.870Z,97137.00
2018-05-25T20:41:48.322Z,97131.51
2018-05-25T20:44:16.217Z,97136.55
2018-05-25T20:46:43.739Z,97145.76
2018-05-25T20:49:11.229Z,97143.28
2018-05-25T20:51:38.669Z,97143.19
2018-05-25T20:54:06.140Z,97147.20
2018-05-25T20:56:33.688Z,97148.47
2018-05-25T20:59:01.204Z,97146.47
2018-05-25T21:01:28.663Z,97145.33
2018-05-25T21:03:56.133Z,97147.34
2018-05-25T21:06:24.805Z,97146.22
2018-05-25T21:08:52.284Z,97144.16
2018-05-25T21:11:19.755Z,97152.94
2018-05-25T21:13:47.191Z,97149.59
2018-05-25T21:16:14.648Z,97149.95
2018-05-25T21:18:42.084Z,97145.46
2018-05-25T21:21:09.950Z,97138.28
2018-05-25T21:23:37.428Z,97152.20
2018-05-25T21:26:04.852Z,97151.78
2018-05-25T21:28:32.285Z,97147.80
2018-05-25T21:30:59.726Z,97149.98
2018-05-25T21:33:27.163Z,97151.13
2018-05-25T21:35:54.596Z,97154.41
2018-05-25T21:38:22.084Z,97155.22
2018-05-25T21:40:49.701Z,97157.48
2018-05-25T21:43:18.432Z,97152.14
2018-05-25T21:45:45.976Z,97148.31
2018-05-25T21:48:13.378Z,97146.12
2018-05-25T21:50:40.841Z,97154.73
2018-05-25T21:53:08.678Z,97157.48
2018-05-25T21:55:36.199Z,97161.06
2018-05-25T21:58:03.601Z,97152.60
2018-05-25T22:00:31.675Z,97163.34
2018-05-25T22:03:00.030Z,97164.67
2018-05-25T22:05:27.512Z,97164.55
2018-05-25T22:07:54.972Z,97160.55
2018-05-25T22:10:22.415Z,97160.63
2018-05-25T22:12:49.880Z,97159.00
2018-05-25T22:15:17.351Z,97168.32
2018-05-25T22:17:44.791Z,97165.98
2018-05-25T22:20:12.812Z,97164.25
2018-05-25T22:22:40.824Z,97163.92
2018-05-25T22:25:08.298Z,97165.61
2018-05-25T22:27:35.736Z,97168.32
2018-05-25T22:30:03.214Z,97162.60
2018-05-25T22:32:30.647Z,97163.23
2018-05-25T22:34:58.056Z,97164.39
2018-05-25T22:37:25.496Z,97173.56
2018-05-25T22:39:52.972Z,97170.22
2018-05-25T22:42:32.283Z,97170.48
2018-05-25T22:45:11.341Z,97171.80
2018-05-25T22:47:50.498Z,97175.31
2018-05-25T22:50:29.545Z,97171.14
2018-05-25T22:53:02.334Z,97164.92
2018-05-25T22:55:30.617Z,97173.00
2018-05-25T22:57:58.099Z,97170.01
2018-05-25T23:00:25.560Z,97172.02
2018-05-25T23:02:53.075Z,97175.07
2018-05-25T23:05:20.555Z,97176.97
2018-05-25T23:07:48.003Z,97177.51
2018-05-25T23:10:17.629Z,97173.16
2018-05-25T23:12:45.093Z,97173.31
2018-05-25T23:15:13.523Z,97171.47
2018-05-25T23:17:41.006Z,97176.95
2018-05-25T23:20:08.578Z,97179.67
2018-05-25T23:22:36.369Z,97171.92
2018-05-25T23:25:03.885Z,97172.02
2018-05-25T23:27:31.457Z,97176.24
2018-05-25T23:29:58.921Z,97172.63
2018-05-25T23:32:26.323Z,97183.87
2018-05-25T23:34:53.792Z,97185.28
2018-05-25T23:37:21.268Z,97186.53
2018-05-25T23:39:48.700Z,97193.47
2018-05-25T23:42:16.168Z,97187.54
2018-05-25T23:44:43.790Z,97187.13
2018-05-25T23:47:11.252Z,97188.45
2018-05-25T23:49:40.101Z,97186.59
2018-05-25T23:52:08.374Z,97186.17
2018-05-25T23:54:35.813Z,97185.36
2018-05-25T23:57:03.255Z,97187.56
2018-05-25T23:59:30.719Z,97183.06
